createdAt,value
2023-08-27T00:00:21.715Z,22.98
2023-08-27T00:03:28.333Z,22.96
2023-08-27T00:06:43.326Z,22.95
2023-08-27T00:09:52.695Z,22.97
2023-08-27T00:12:59.435Z,23.01
2023-08-27T00:16:10.476Z,23.00
2023-08-27T00:19:20.462Z,23.04
2023-08-27T00:22:31.734Z,23.06
2023-08-27T00:25:40.925Z,23.10
2023-08-27T00:28:47.961Z,23.09
2023-08-27T00:32:11.524Z,23.07
2023-08-27T00:35:26.614Z,23.09
2023-08-27T00:38:37.288Z,23.10
2023-08-27T00:41:44.953Z,23.16
2023-08-27T00:44:53.154Z,23.21
2023-08-27T00:48:00.624Z,23.28
2023-08-27T00:51:12.619Z,23.35
2023-08-27T00:54:28.571Z,23.42
2023-08-27T00:57:40.568Z,23.45
2023-08-27T01:00:47.808Z,23.53
2023-08-27T01:03:53.795Z,23.57
2023-08-27T01:07:13.761Z,23.56
2023-08-27T01:10:45.770Z,23.55
2023-08-27T01:14:00.762Z,23.54
2023-08-27T01:17:16.367Z,23.56
2023-08-27T01:20:23.767Z,23.44
2023-08-27T01:23:33.905Z,23.56
2023-08-27T01:26:49.593Z,23.54
2023-08-27T01:30:12.761Z,23.58
2023-08-27T01:33:28.108Z,23.61
2023-08-27T01:36:38.377Z,23.62
2023-08-27T01:39:48.196Z,23.60
2023-08-27T01:43:01.600Z,23.68
2023-08-27T01:46:08.800Z,23.72
2023-08-27T01:49:18.760Z,23.67
2023-08-27T01:52:26.711Z,23.74
2023-08-27T01:55:38.710Z,23.71
2023-08-27T01:58:50.432Z,23.76
2023-08-27T02:01:59.637Z,23.78
2023-08-27T02:05:13.954Z,23.83
2023-08-27T02:08:22.327Z,23.85
2023-08-27T02:11:31.566Z,23.88
2023-08-27T02:14:44.769Z,23.94
2023-08-27T02:17:53.438Z,23.97
2023-08-27T02:21:06.729Z,23.91
2023-08-27T02:24:15.956Z,23.86
2023-08-27T02:27:29.677Z,23.90
2023-08-27T02:30:43.682Z,23.96
2023-08-27T02:33:55.776Z,23.97
2023-08-27T02:37:04.657Z,24.00
2023-08-27T02:40:15.189Z,23.99
2023-08-27T02:43:24.316Z,24.04
2023-08-27T02:46:30.157Z,23.96
2023-08-27T02:49:36.868Z,23.87
2023-08-27T02:52:43.868Z,23.85
2023-08-27T02:55:54.914Z,23.83
2023-08-27T02:59:11.811Z,23.83
2023-08-27T03:02:19.779Z,23.78
2023-08-27T03:05:32.700Z,23.81
2023-08-27T03:08:40.000Z,23.81
2023-08-27T03:11:46.697Z,23.84
2023-08-27T03:14:58.787Z,23.82
2023-08-27T03:18:10.872Z,23.82
2023-08-27T03:21:19.130Z,23.81
2023-08-27T03:24:25.102Z,23.81
2023-08-27T03:27:31.717Z,23.85
2023-08-27T03:30:43.553Z,23.88
2023-08-27T03:33:50.067Z,23.89
2023-08-27T03:36:58.728Z,23.91
2023-08-27T03:40:06.045Z,23.93
2023-08-27T03:43:12.047Z,23.94
2023-08-27T03:46:21.257Z,23.98
2023-08-27T03:49:30.970Z,24.04
2023-08-27T03:52:42.813Z,24.09
2023-08-27T03:55:54.667Z,24.10
2023-08-27T03:59:13.846Z,24.14
2023-08-27T04:02:24.249Z,24.19
2023-08-27T04:05:33.522Z,24.21
2023-08-27T04:08:45.643Z,24.16
2023-08-27T04:11:53.713Z,24.08
2023-08-27T04:15:01.492Z,24.04
2023-08-27T04:18:13.556Z,24.03
2023-08-27T04:21:24.448Z,24.01
2023-08-27T04:24:32.744Z,24.02
2023-08-27T04:27:42.825Z,24.06
2023-08-27T04:30:51.892Z,24.10
2023-08-27T04:34:05.457Z,24.04
2023-08-27T04:37:11.984Z,24.08
2023-08-27T04:40:18.526Z,24.11
2023-08-27T04:43:27.877Z,24.10
2023-08-27T04:46:49.869Z,24.10
2023-08-27T04:50:02.822Z,24.14
2023-08-27T04:53:14.375Z,24.20
2023-08-27T04:56:24.869Z,24.22
2023-08-27T04:59:39.769Z,24.27
2023-08-27T05:02:46.461Z,24.22
2023-08-27T05:05:58.952Z,24.20
2023-08-27T05:09:07.613Z,24.18
2023-08-27T05:12:24.797Z,24.18
2023-08-27T05:15:32.901Z,24.18
2023-08-27T05:18:40.072Z,24.21
2023-08-27T05:21:55.878Z,24.23
2023-08-27T05:25:08.866Z,24.27
2023-08-27T05:28:18.725Z,24.28
2023-08-27T05:31:28.630Z,24.32
2023-08-27T05:34:38.744Z,24.33
2023-08-27T05:37:51.160Z,24.39
2023-08-27T05:41:00.322Z,24.40
2023-08-27T05:44:08.142Z,24.43
2023-08-27T05:47:18.546Z,24.37
2023-08-27T05:50:25.430Z,24.28
2023-08-27T05:53:40.883Z,24.22
2023-08-27T05:56:52.106Z,24.23
2023-08-27T05:59:59.900Z,24.17
2023-08-27T06:03:23.570Z,24.15
2023-08-27T06:06:34.767Z,24.22
2023-08-27T06:09:46.709Z,24.28
2023-08-27T06:12:53.886Z,24.26
2023-08-27T06:16:00.460Z,24.32
2023-08-27T06:19:08.238Z,24.33
2023-08-27T06:22:14.216Z,24.46
2023-08-27T06:25:23.888Z,24.53
2023-08-27T06:28:35.723Z,24.63
2023-08-27T06:31:45.444Z,24.75
2023-08-27T06:34:56.236Z,24.91
2023-08-27T06:38:03.005Z,25.03
2023-08-27T06:41:12.956Z,25.11
2023-08-27T06:44:21.013Z,25.26
2023-08-27T06:47:30.465Z,25.38
2023-08-27T06:50:37.842Z,25.46
2023-08-27T06:53:43.622Z,25.52
2023-08-27T06:56:52.939Z,25.55
2023-08-27T06:59:58.956Z,25.58
2023-08-27T07:03:10.951Z,25.61
2023-08-27T07:06:24.290Z,25.66
2023-08-27T07:09:36.049Z,25.65
2023-08-27T07:12:47.946Z,25.79
2023-08-27T07:15:54.546Z,25.86
2023-08-27T07:19:00.406Z,25.81
2023-08-27T07:22:08.130Z,25.85
2023-08-27T07:25:18.364Z,25.82
2023-08-27T07:28:28.727Z,25.77
2023-08-27T07:31:43.002Z,25.69
2023-08-27T07:34:52.240Z,25.74
2023-08-27T07:38:06.252Z,25.85
2023-08-27T07:41:15.834Z,26.02
2023-08-27T07:44:24.471Z,26.20
2023-08-27T07:47:37.768Z,26.38
2023-08-27T07:50:46.407Z,26.57
2023-08-27T07:53:53.994Z,26.69
2023-08-27T07:57:02.996Z,26.91
2023-08-27T08:00:23.363Z,27.13
2023-08-27T08:03:30.181Z,27.41
2023-08-27T08:06:37.255Z,27.58
2023-08-27T08:09:45.277Z,27.59
2023-08-27T08:12:52.988Z,27.90
2023-08-27T08:16:11.036Z,28.07
2023-08-27T08:19:17.607Z,28.20
2023-08-27T08:22:28.059Z,28.27
2023-08-27T08:25:37.002Z,28.34
2023-08-27T08:28:46.664Z,28.41
2023-08-27T08:32:04.726Z,28.47
2023-08-27T08:35:18.462Z,28.47
2023-08-27T08:38:26.001Z,28.54
2023-08-27T08:41:44.453Z,28.58
2023-08-27T08:45:06.977Z,28.66
2023-08-27T08:48:16.980Z,28.72
2023-08-27T08:54:39.374Z,28.60
2023-08-27T08:57:55.701Z,28.69
2023-08-27T09:01:01.882Z,28.79
2023-08-27T09:04:12.392Z,28.92
2023-08-27T09:07:21.954Z,29.02
2023-08-27T09:10:29.171Z,29.07
2023-08-27T09:13:35.596Z,29.20
2023-08-27T09:16:42.253Z,29.32
2023-08-27T09:19:52.399Z,29.40
2023-08-27T09:23:00.877Z,29.37
2023-08-27T09:26:08.225Z,29.55
2023-08-27T09:29:16.965Z,29.57
2023-08-27T09:32:28.170Z,29.59
2023-08-27T09:35:45.670Z,29.57
2023-08-27T09:38:55.122Z,29.53
2023-08-27T09:42:04.629Z,29.47
2023-08-27T09:45:13.144Z,29.42
2023-08-27T09:48:28.706Z,29.47
2023-08-27T09:51:40.686Z,29.55
2023-08-27T09:54:47.944Z,29.65
2023-08-27T09:57:56.903Z,29.76
2023-08-27T10:01:04.928Z,29.87
2023-08-27T10:04:11.923Z,29.99
2023-08-27T10:07:22.529Z,30.04
2023-08-27T10:10:33.339Z,30.14
2023-08-27T10:13:46.590Z,30.20
2023-08-27T10:16:53.367Z,30.23
2023-08-27T10:20:04.984Z,30.22
2023-08-27T10:23:15.109Z,30.20
2023-08-27T10:26:26.100Z,30.01
2023-08-27T10:29:32.660Z,29.93
2023-08-27T10:32:43.386Z,29.92
2023-08-27T10:35:59.081Z,29.89
2023-08-27T10:39:14.372Z,29.92
2023-08-27T10:42:34.960Z,29.81
2023-08-27T10:45:42.932Z,29.85
2023-08-27T10:48:57.203Z,30.01
2023-08-27T10:52:18.289Z,30.22
2023-08-27T10:55:40.989Z,30.33
2023-08-27T10:58:53.292Z,30.26
2023-08-27T11:02:13.169Z,30.25
2023-08-27T11:05:31.177Z,30.22
2023-08-27T11:08:48.165Z,30.18
2023-08-27T11:12:05.730Z,30.00
2023-08-27T11:15:20.881Z,30.05
2023-08-27T11:18:29.894Z,29.94
2023-08-27T11:21:53.563Z,29.82
2023-08-27T11:25:02.164Z,29.77
2023-08-27T11:28:22.170Z,29.84
2023-08-27T11:31:32.310Z,29.98
2023-08-27T11:34:46.522Z,30.03
2023-08-27T11:37:58.590Z,30.15
2023-08-27T11:41:05.795Z,30.25
2023-08-27T11:44:17.756Z,30.36
2023-08-27T11:47:31.769Z,30.52
2023-08-27T11:50:47.481Z,30.69
2023-08-27T11:53:55.660Z,30.74
2023-08-27T11:57:04.902Z,30.76
2023-08-27T12:00:18.322Z,30.80
2023-08-27T12:03:25.204Z,30.90
2023-08-27T12:06:33.134Z,31.06
2023-08-27T12:09:39.759Z,31.18
2023-08-27T12:12:48.967Z,31.30
2023-08-27T12:15:58.522Z,31.30
2023-08-27T12:19:10.091Z,31.15
2023-08-27T12:22:19.751Z,30.99
2023-08-27T12:25:29.016Z,30.70
2023-08-27T12:28:39.334Z,30.67
2023-08-27T12:31:50.246Z,30.68
2023-08-27T12:34:57.564Z,30.71
2023-08-27T12:38:03.686Z,30.79
2023-08-27T12:41:10.478Z,30.82
2023-08-27T12:44:17.361Z,30.94
2023-08-27T12:47:30.966Z,31.10
2023-08-27T12:50:38.300Z,31.23
2023-08-27T12:53:47.385Z,31.41
2023-08-27T12:56:54.154Z,31.44
2023-08-27T13:00:01.664Z,31.37
2023-08-27T13:03:10.409Z,31.40
2023-08-27T13:06:17.125Z,30.90
2023-08-27T13:09:26.916Z,30.87
2023-08-27T13:12:36.263Z,30.88
2023-08-27T13:15:42.814Z,30.89
2023-08-27T13:18:52.372Z,30.96
2023-08-27T13:22:12.298Z,31.15
2023-08-27T13:25:25.310Z,31.27
2023-08-27T13:28:35.251Z,31.35
2023-08-27T13:31:49.311Z,31.43
2023-08-27T13:35:02.036Z,31.47
2023-08-27T13:38:09.591Z,31.43
2023-08-27T13:41:17.307Z,31.51
2023-08-27T13:44:24.274Z,31.59
2023-08-27T13:47:34.314Z,31.65
2023-08-27T13:50:45.974Z,31.56
2023-08-27T13:53:53.335Z,31.42
2023-08-27T13:57:02.171Z,31.34
2023-08-27T14:00:12.714Z,31.38
2023-08-27T14:03:22.882Z,31.34
2023-08-27T14:06:38.460Z,31.20
2023-08-27T14:09:45.565Z,31.13
2023-08-27T14:12:51.712Z,31.09
2023-08-27T14:15:58.428Z,31.19
2023-08-27T14:19:05.321Z,31.37
2023-08-27T14:22:14.790Z,31.39
2023-08-27T14:25:20.661Z,31.40
2023-08-27T14:28:28.679Z,31.49
2023-08-27T14:31:39.602Z,31.66
2023-08-27T14:34:46.988Z,31.86
2023-08-27T14:37:56.676Z,32.03
2023-08-27T14:41:05.458Z,32.11
2023-08-27T14:44:15.467Z,32.18
2023-08-27T14:47:25.277Z,32.17
2023-08-27T14:50:39.724Z,32.05
2023-08-27T14:53:49.863Z,32.03
2023-08-27T14:57:09.355Z,32.06
2023-08-27T15:00:22.603Z,31.96
2023-08-27T15:03:33.292Z,31.99
2023-08-27T15:06:40.310Z,32.02
2023-08-27T15:09:51.593Z,32.15
2023-08-27T15:13:00.794Z,32.31
2023-08-27T15:16:07.347Z,32.40
2023-08-27T15:19:14.357Z,32.46
2023-08-27T15:22:24.535Z,32.41
2023-08-27T15:25:34.008Z,32.37
2023-08-27T15:28:40.509Z,32.38
2023-08-27T15:31:48.320Z,32.23
2023-08-27T15:34:54.392Z,32.14
2023-08-27T15:38:02.188Z,32.10
2023-08-27T15:41:12.769Z,32.09
2023-08-27T15:44:19.625Z,32.13
2023-08-27T15:47:26.366Z,32.16
2023-08-27T15:50:33.591Z,32.23
2023-08-27T15:53:44.374Z,32.37
2023-08-27T15:56:54.172Z,32.51
2023-08-27T16:00:00.363Z,32.49
2023-08-27T16:03:08.408Z,32.33
2023-08-27T16:06:14.626Z,32.07
2023-08-27T16:09:22.040Z,31.94
2023-08-27T16:12:34.155Z,31.76
2023-08-27T16:15:41.720Z,31.61
2023-08-27T16:18:49.202Z,31.46
2023-08-27T16:21:55.898Z,31.44
2023-08-27T16:25:01.690Z,31.31
2023-08-27T16:28:11.463Z,31.20
2023-08-27T16:31:22.221Z,31.02
2023-08-27T16:34:29.518Z,31.03
2023-08-27T16:37:35.822Z,30.94
2023-08-27T16:40:43.785Z,30.87
2023-08-27T16:43:56.320Z,30.80
2023-08-27T16:47:04.442Z,30.79
2023-08-27T16:50:14.258Z,30.74
2023-08-27T16:53:23.429Z,30.71
2023-08-27T16:56:29.577Z,30.62
2023-08-27T16:59:40.826Z,30.53
2023-08-27T17:02:46.880Z,30.40
2023-08-27T17:06:00.339Z,30.31
2023-08-27T17:09:06.523Z,30.22
2023-08-27T17:12:13.731Z,30.10
2023-08-27T17:15:22.705Z,29.97
2023-08-27T17:18:29.355Z,29.91
2023-08-27T17:21:35.647Z,29.81
2023-08-27T17:24:46.376Z,29.69
2023-08-27T17:27:52.462Z,29.65
2023-08-27T17:31:02.023Z,29.57
2023-08-27T17:34:08.403Z,29.44
2023-08-27T17:37:15.171Z,29.38
2023-08-27T17:40:21.653Z,29.31
2023-08-27T17:43:29.045Z,29.18
2023-08-27T17:46:37.618Z,29.07
2023-08-27T17:49:48.771Z,28.97
2023-08-27T17:52:56.610Z,28.90
2023-08-27T17:56:04.855Z,28.77
2023-08-27T17:59:12.924Z,28.72
2023-08-27T18:02:29.566Z,28.64
2023-08-27T18:05:38.548Z,28.58
2023-08-27T18:08:45.446Z,28.52
2023-08-27T18:11:52.437Z,28.47
2023-08-27T18:15:00.682Z,28.44
2023-08-27T18:18:12.587Z,28.37
2023-08-27T18:21:25.259Z,28.29
2023-08-27T18:24:38.603Z,28.18
2023-08-27T18:27:50.065Z,28.08
2023-08-27T18:30:59.931Z,28.06
2023-08-27T18:34:09.522Z,28.08
2023-08-27T18:37:15.485Z,28.06
2023-08-27T18:40:22.649Z,28.03
2023-08-27T18:43:37.171Z,27.98
2023-08-27T18:46:46.230Z,27.96
2023-08-27T18:49:55.339Z,27.95
2023-08-27T18:53:04.488Z,27.91
2023-08-27T18:56:10.877Z,27.90
2023-08-27T18:59:19.542Z,27.85
2023-08-27T19:02:26.808Z,27.86
2023-08-27T19:05:42.176Z,27.83
2023-08-27T19:08:55.578Z,27.78
2023-08-27T19:12:10.802Z,27.73
2023-08-27T19:15:20.444Z,27.69
2023-08-27T19:18:31.045Z,27.64
2023-08-27T19:21:39.755Z,27.60
2023-08-27T19:24:47.897Z,27.56
2023-08-27T19:27:54.970Z,27.48
2023-08-27T19:31:05.716Z,27.34
2023-08-27T19:34:15.522Z,27.37
2023-08-27T19:37:25.246Z,27.29
2023-08-27T19:40:31.251Z,27.24
2023-08-27T19:43:38.256Z,27.18
2023-08-27T19:46:44.613Z,27.10
2023-08-27T19:49:52.913Z,27.16
2023-08-27T19:53:03.811Z,27.16
2023-08-27T19:56:12.518Z,27.12
2023-08-27T19:59:18.707Z,27.11
2023-08-27T20:02:26.034Z,27.11
2023-08-27T20:05:32.249Z,27.08
2023-08-27T20:08:41.630Z,26.99
2023-08-27T20:11:47.857Z,27.00
2023-08-27T20:14:57.411Z,26.96
2023-08-27T20:18:05.500Z,26.91
2023-08-27T20:21:12.532Z,26.88
2023-08-27T20:24:24.658Z,26.80
2023-08-27T20:27:32.401Z,26.79
2023-08-27T20:30:39.312Z,26.75
2023-08-27T20:33:47.024Z,26.73
2023-08-27T20:36:53.019Z,26.71
2023-08-27T20:40:02.299Z,26.71
2023-08-27T20:43:12.647Z,26.72
2023-08-27T20:46:21.377Z,26.72
2023-08-27T20:49:27.487Z,26.65
2023-08-27T20:52:34.450Z,26.57
2023-08-27T20:55:42.880Z,26.46
2023-08-27T20:58:50.713Z,26.40
2023-08-27T21:01:58.848Z,26.40
2023-08-27T21:05:06.632Z,26.39
2023-08-27T21:08:12.709Z,26.37
2023-08-27T21:11:22.400Z,26.31
2023-08-27T21:14:32.786Z,26.29
2023-08-27T21:17:39.544Z,26.31
2023-08-27T21:20:45.350Z,26.30
2023-08-27T21:23:52.653Z,26.27
2023-08-27T21:27:04.007Z,26.19
2023-08-27T21:30:12.968Z,26.15
2023-08-27T21:33:19.455Z,26.08
2023-08-27T21:36:27.500Z,25.98
2023-08-27T21:39:36.260Z,25.86
2023-08-27T21:42:50.494Z,25.77
2023-08-27T21:45:56.300Z,25.70
2023-08-27T21:49:05.313Z,25.64
2023-08-27T21:52:12.985Z,25.62
2023-08-27T21:55:19.722Z,25.65
2023-08-27T21:58:28.830Z,25.64
2023-08-27T22:01:36.965Z,25.60
2023-08-27T22:04:45.017Z,25.53
2023-08-27T22:07:52.334Z,25.44
2023-08-27T22:10:59.845Z,25.35
2023-08-27T22:14:11.071Z,25.21
2023-08-27T22:17:17.550Z,24.97
2023-08-27T22:20:24.827Z,24.82
2023-08-27T22:23:37.842Z,24.67
2023-08-27T22:26:46.110Z,24.60
2023-08-27T22:30:07.925Z,24.47
2023-08-27T22:33:16.909Z,24.44
2023-08-27T22:36:29.708Z,24.43
2023-08-27T22:39:36.605Z,24.37
2023-08-27T22:42:43.443Z,24.34
2023-08-27T22:45:53.776Z,24.21
2023-08-27T22:49:03.606Z,24.16
2023-08-27T22:52:17.298Z,23.94
2023-08-27T22:55:27.718Z,23.88
2023-08-27T22:58:43.723Z,23.55
2023-08-27T23:01:55.898Z,23.45
2023-08-27T23:05:03.493Z,23.27
2023-08-27T23:08:10.806Z,23.31
2023-08-27T23:11:21.028Z,22.97
2023-08-27T23:14:33.977Z,22.80
2023-08-27T23:17:43.492Z,22.74
2023-08-27T23:21:06.961Z,22.47
2023-08-27T23:24:18.948Z,22.28
2023-08-27T23:27:26.314Z,22.29
2023-08-27T23:30:33.722Z,22.12
2023-08-27T23:33:44.552Z,22.17
2023-08-27T23:36:55.662Z,22.07
2023-08-27T23:40:03.509Z,22.10
2023-08-27T23:43:15.062Z,22.04
2023-08-27T23:46:21.685Z,22.10
2023-08-27T23:49:32.829Z,22.09
2023-08-27T23:52:40.382Z,22.19
2023-08-27T23:55:46.944Z,22.12
2023-08-27T23:58:54.743Z,22.13
